sensor_id;sensor_type;location;lat;lon;timestamp;P1;durP1;ratioP1;P2;durP2;ratioP2
7983;SDS011;4037;47.980;10.172;2022-12-11T00:02:11;39.43;;;23.37;;
7983;SDS011;4037;47.980;10.172;2022-12-11T00:04:37;37.00;;;21.23;;
7983;SDS011;4037;47.980;10.172;2022-12-11T00:07:03;33.33;;;21.00;;
7983;SDS011;4037;47.980;10.172;2022-12-11T00:09:29;38.77;;;21.33;;
7983;SDS011;4037;47.980;10.172;2022-12-11T00:11:55;33.20;;;20.03;;
7983;SDS011;4037;47.980;10.172;2022-12-11T00:14:21;36.43;;;22.00;;
7983;SDS011;4037;47.980;10.172;2022-12-11T00:16:47;40.97;;;21.67;;
7983;SDS011;4037;47.980;10.172;2022-12-11T00:19:13;33.93;;;21.77;;
7983;SDS011;4037;47.980;10.172;2022-12-11T00:21:39;31.50;;;20.30;;
7983;SDS011;4037;47.980;10.172;2022-12-11T00:24:06;32.67;;;20.90;;
7983;SDS011;4037;47.980;10.172;2022-12-11T00:26:32;34.00;;;20.63;;
7983;SDS011;4037;47.980;10.172;2022-12-11T00:28:58;33.57;;;20.73;;
7983;SDS011;4037;47.980;10.172;2022-12-11T00:31:24;32.37;;;19.77;;
7983;SDS011;4037;47.980;10.172;2022-12-11T00:33:50;36.20;;;20.60;;
7983;SDS011;4037;47.980;10.172;2022-12-11T00:36:17;32.83;;;19.60;;
7983;SDS011;4037;47.980;10.172;2022-12-11T00:38:43;36.23;;;21.13;;
7983;SDS011;4037;47.980;10.172;2022-12-11T00:41:10;33.20;;;19.63;;
7983;SDS011;4037;47.980;10.172;2022-12-11T00:43:36;31.17;;;20.20;;
7983;SDS011;4037;47.980;10.172;2022-12-11T00:46:02;33.10;;;20.50;;
7983;SDS011;4037;47.980;10.172;2022-12-11T00:48:28;32.77;;;20.43;;
7983;SDS011;4037;47.980;10.172;2022-12-11T00:50:54;32.77;;;20.13;;
7983;SDS011;4037;47.980;10.172;2022-12-11T00:53:20;33.47;;;20.83;;
7983;SDS011;4037;47.980;10.172;2022-12-11T00:55:46;33.67;;;21.33;;
7983;SDS011;4037;47.980;10.172;2022-12-11T00:58:12;30.83;;;19.20;;
7983;SDS011;4037;47.980;10.172;2022-12-11T01:00:39;30.77;;;19.93;;
7983;SDS011;4037;47.980;10.172;2022-12-11T01:03:06;31.47;;;19.73;;
7983;SDS011;4037;47.980;10.172;2022-12-11T01:05:32;34.27;;;20.37;;
7983;SDS011;4037;47.980;10.172;2022-12-11T01:07:58;28.10;;;18.90;;
7983;SDS011;4037;47.980;10.172;2022-12-11T01:10:24;32.87;;;20.57;;
7983;SDS011;4037;47.980;10.172;2022-12-11T01:12:52;29.30;;;19.67;;
7983;SDS011;4037;47.980;10.172;2022-12-11T01:15:19;30.23;;;19.30;;
7983;SDS011;4037;47.980;10.172;2022-12-11T01:17:47;35.07;;;21.10;;
7983;SDS011;4037;47.980;10.172;2022-12-11T01:20:13;32.40;;;21.13;;
7983;SDS011;4037;47.980;10.172;2022-12-11T01:22:39;30.67;;;19.37;;
7983;SDS011;4037;47.980;10.172;2022-12-11T01:25:05;29.90;;;19.90;;
7983;SDS011;4037;47.980;10.172;2022-12-11T01:27:33;31.20;;;17.97;;
7983;SDS011;4037;47.980;10.172;2022-12-11T01:29:59;31.17;;;19.23;;
7983;SDS011;4037;47.980;10.172;2022-12-11T01:32:26;28.23;;;19.43;;
7983;SDS011;4037;47.980;10.172;2022-12-11T01:34:52;28.47;;;18.57;;
7983;SDS011;4037;47.980;10.172;2022-12-11T01:37:18;32.77;;;19.93;;
7983;SDS011;4037;47.980;10.172;2022-12-11T01:39:45;30.57;;;19.27;;
7983;SDS011;4037;47.980;10.172;2022-12-11T01:42:14;32.87;;;19.80;;
7983;SDS011;4037;47.980;10.172;2022-12-11T01:47:07;30.47;;;19.03;;
7983;SDS011;4037;47.980;10.172;2022-12-11T01:49:33;30.00;;;18.87;;
7983;SDS011;4037;47.980;10.172;2022-12-11T01:52:10;32.70;;;19.40;;
7983;SDS011;4037;47.980;10.172;2022-12-11T01:54:37;27.50;;;19.17;;
7983;SDS011;4037;47.980;10.172;2022-12-11T01:57:03;28.87;;;19.37;;
7983;SDS011;4037;47.980;10.172;2022-12-11T01:59:31;29.80;;;19.33;;
7983;SDS011;4037;47.980;10.172;2022-12-11T02:02:21;30.10;;;18.73;;
7983;SDS011;4037;47.980;10.172;2022-12-11T02:04:48;31.10;;;19.30;;
7983;SDS011;4037;47.980;10.172;2022-12-11T02:07:14;28.83;;;18.10;;
7983;SDS011;4037;47.980;10.172;2022-12-11T02:09:41;29.93;;;18.50;;
7983;SDS011;4037;47.980;10.172;2022-12-11T02:22:42;28.17;;;17.33;;
7983;SDS011;4037;47.980;10.172;2022-12-11T02:27:43;29.43;;;18.87;;
7983;SDS011;4037;47.980;10.172;2022-12-11T02:30:10;26.50;;;17.60;;
7983;SDS011;4037;47.980;10.172;2022-12-11T02:35:17;29.77;;;18.33;;
7983;SDS011;4037;47.980;10.172;2022-12-11T02:37:45;28.87;;;18.97;;
7983;SDS011;4037;47.980;10.172;2022-12-11T02:40:13;28.97;;;18.60;;
7983;SDS011;4037;47.980;10.172;2022-12-11T02:42:40;26.53;;;16.77;;
7983;SDS011;4037;47.980;10.172;2022-12-11T02:45:07;28.40;;;17.20;;
7983;SDS011;4037;47.980;10.172;2022-12-11T02:47:34;27.13;;;18.00;;
7983;SDS011;4037;47.980;10.172;2022-12-11T02:50:02;25.67;;;17.97;;
7983;SDS011;4037;47.980;10.172;2022-12-11T02:52:31;26.27;;;16.70;;
7983;SDS011;4037;47.980;10.172;2022-12-11T02:54:57;26.77;;;17.60;;
7983;SDS011;4037;47.980;10.172;2022-12-11T02:59:50;28.27;;;17.50;;
7983;SDS011;4037;47.980;10.172;2022-12-11T03:02:16;26.03;;;17.10;;
7983;SDS011;4037;47.980;10.172;2022-12-11T03:04:43;28.90;;;17.83;;
7983;SDS011;4037;47.980;10.172;2022-12-11T03:07:10;28.57;;;17.00;;
7983;SDS011;4037;47.980;10.172;2022-12-11T03:09:38;28.20;;;17.47;;
7983;SDS011;4037;47.980;10.172;2022-12-11T03:12:05;25.37;;;17.20;;
7983;SDS011;4037;47.980;10.172;2022-12-11T03:14:31;26.93;;;16.40;;
7983;SDS011;4037;47.980;10.172;2022-12-11T03:17:41;27.60;;;17.40;;
7983;SDS011;4037;47.980;10.172;2022-12-11T03:19:47;23.70;;;15.57;;
7983;SDS011;4037;47.980;10.172;2022-12-11T03:25:00;26.53;;;16.87;;
7983;SDS011;4037;47.980;10.172;2022-12-11T03:29:58;28.00;;;18.43;;
7983;SDS011;4037;47.980;10.172;2022-12-11T03:32:26;28.47;;;16.90;;
7983;SDS011;4037;47.980;10.172;2022-12-11T03:34:54;27.27;;;16.93;;
7983;SDS011;4037;47.980;10.172;2022-12-11T03:37:21;24.27;;;16.17;;
7983;SDS011;4037;47.980;10.172;2022-12-11T03:39:50;28.47;;;17.67;;
7983;SDS011;4037;47.980;10.172;2022-12-11T03:42:16;25.27;;;16.63;;
7983;SDS011;4037;47.980;10.172;2022-12-11T03:44:45;24.00;;;15.53;;
7983;SDS011;4037;47.980;10.172;2022-12-11T03:47:11;24.87;;;16.23;;
7983;SDS011;4037;47.980;10.172;2022-12-11T03:49:40;27.20;;;16.33;;
7983;SDS011;4037;47.980;10.172;2022-12-11T03:52:06;27.17;;;16.87;;
7983;SDS011;4037;47.980;10.172;2022-12-11T03:54:34;23.97;;;16.10;;
7983;SDS011;4037;47.980;10.172;2022-12-11T03:57:00;28.17;;;17.10;;
7983;SDS011;4037;47.980;10.172;2022-12-11T03:59:27;27.10;;;16.43;;
7983;SDS011;4037;47.980;10.172;2022-12-11T04:01:53;26.40;;;16.67;;
7983;SDS011;4037;47.980;10.172;2022-12-11T04:04:19;22.83;;;14.87;;
7983;SDS011;4037;47.980;10.172;2022-12-11T04:06:45;23.33;;;15.37;;
7983;SDS011;4037;47.980;10.172;2022-12-11T04:09:11;26.23;;;16.63;;
7983;SDS011;4037;47.980;10.172;2022-12-11T04:11:37;26.43;;;16.37;;
7983;SDS011;4037;47.980;10.172;2022-12-11T04:14:08;28.27;;;15.83;;
7983;SDS011;4037;47.980;10.172;2022-12-11T04:16:53;26.70;;;16.30;;
7983;SDS011;4037;47.980;10.172;2022-12-11T04:19:19;23.53;;;15.53;;
7983;SDS011;4037;47.980;10.172;2022-12-11T04:22:04;27.90;;;17.07;;
7983;SDS011;4037;47.980;10.172;2022-12-11T04:24:49;25.27;;;15.70;;
7983;SDS011;4037;47.980;10.172;2022-12-11T04:27:16;27.60;;;16.73;;
7983;SDS011;4037;47.980;10.172;2022-12-11T04:30:03;29.07;;;16.63;;
7983;SDS011;4037;47.980;10.172;2022-12-11T04:32:29;25.57;;;16.47;;
7983;SDS011;4037;47.980;10.172;2022-12-11T04:34:55;23.57;;;15.27;;
7983;SDS011;4037;47.980;10.172;2022-12-11T04:37:21;22.53;;;15.03;;
7983;SDS011;4037;47.980;10.172;2022-12-11T04:39:47;24.17;;;15.20;;
7983;SDS011;4037;47.980;10.172;2022-12-11T04:42:13;23.50;;;14.37;;
7983;SDS011;4037;47.980;10.172;2022-12-11T04:44:39;21.73;;;13.83;;
7983;SDS011;4037;47.980;10.172;2022-12-11T04:47:06;23.13;;;14.03;;
7983;SDS011;4037;47.980;10.172;2022-12-11T04:49:32;27.13;;;14.77;;
7983;SDS011;4037;47.980;10.172;2022-12-11T04:51:58;23.90;;;14.60;;
7983;SDS011;4037;47.980;10.172;2022-12-11T04:54:24;19.70;;;13.53;;
7983;SDS011;4037;47.980;10.172;2022-12-11T04:56:50;20.63;;;14.50;;
7983;SDS011;4037;47.980;10.172;2022-12-11T04:59:16;21.50;;;14.13;;
7983;SDS011;4037;47.980;10.172;2022-12-11T05:01:42;19.97;;;13.83;;
7983;SDS011;4037;47.980;10.172;2022-12-11T05:04:08;19.87;;;12.90;;
7983;SDS011;4037;47.980;10.172;2022-12-11T05:06:34;20.43;;;13.57;;
7983;SDS011;4037;47.980;10.172;2022-12-11T05:09:00;21.37;;;13.17;;
7983;SDS011;4037;47.980;10.172;2022-12-11T05:11:25;20.57;;;13.77;;
7983;SDS011;4037;47.980;10.172;2022-12-11T05:13:52;18.93;;;12.40;;
7983;SDS011;4037;47.980;10.172;2022-12-11T05:16:18;19.60;;;12.80;;
7983;SDS011;4037;47.980;10.172;2022-12-11T05:18:44;17.47;;;12.73;;
7983;SDS011;4037;47.980;10.172;2022-12-11T05:21:12;18.93;;;13.70;;
7983;SDS011;4037;47.980;10.172;2022-12-11T05:23:38;20.10;;;12.20;;
7983;SDS011;4037;47.980;10.172;2022-12-11T05:26:05;19.97;;;11.80;;
7983;SDS011;4037;47.980;10.172;2022-12-11T05:28:33;14.50;;;9.97;;
7983;SDS011;4037;47.980;10.172;2022-12-11T05:31:00;13.40;;;9.47;;
7983;SDS011;4037;47.980;10.172;2022-12-11T05:33:26;14.03;;;10.50;;
7983;SDS011;4037;47.980;10.172;2022-12-11T05:35:53;15.07;;;10.60;;
7983;SDS011;4037;47.980;10.172;2022-12-11T05:38:19;16.10;;;11.53;;
7983;SDS011;4037;47.980;10.172;2022-12-11T05:40:53;13.73;;;9.53;;
7983;SDS011;4037;47.980;10.172;2022-12-11T05:43:19;14.33;;;8.57;;
7983;SDS011;4037;47.980;10.172;2022-12-11T05:45:45;13.87;;;9.13;;
7983;SDS011;4037;47.980;10.172;2022-12-11T05:48:11;15.17;;;10.33;;
7983;SDS011;4037;47.980;10.172;2022-12-11T05:50:37;11.00;;;8.00;;
7983;SDS011;4037;47.980;10.172;2022-12-11T05:53:03;12.50;;;9.87;;
7983;SDS011;4037;47.980;10.172;2022-12-11T05:55:32;13.23;;;10.43;;
7983;SDS011;4037;47.980;10.172;2022-12-11T05:57:58;13.43;;;10.33;;
7983;SDS011;4037;47.980;10.172;2022-12-11T06:00:24;13.73;;;9.97;;
7983;SDS011;4037;47.980;10.172;2022-12-11T06:02:50;15.47;;;10.17;;
7983;SDS011;4037;47.980;10.172;2022-12-11T06:05:17;13.43;;;10.27;;
7983;SDS011;4037;47.980;10.172;2022-12-11T06:07:43;15.00;;;10.53;;
7983;SDS011;4037;47.980;10.172;2022-12-11T06:10:09;17.17;;;12.23;;
7983;SDS011;4037;47.980;10.172;2022-12-11T06:12:35;16.60;;;11.23;;
7983;SDS011;4037;47.980;10.172;2022-12-11T06:15:01;15.23;;;10.67;;
7983;SDS011;4037;47.980;10.172;2022-12-11T06:17:28;15.33;;;11.23;;
7983;SDS011;4037;47.980;10.172;2022-12-11T06:19:54;16.10;;;11.60;;
7983;SDS011;4037;47.980;10.172;2022-12-11T06:22:20;15.77;;;10.87;;
7983;SDS011;4037;47.980;10.172;2022-12-11T06:24:46;16.07;;;10.67;;
7983;SDS011;4037;47.980;10.172;2022-12-11T06:27:12;15.10;;;10.73;;
7983;SDS011;4037;47.980;10.172;2022-12-11T06:29:38;14.70;;;10.40;;
7983;SDS011;4037;47.980;10.172;2022-12-11T06:32:04;15.33;;;10.83;;
7983;SDS011;4037;47.980;10.172;2022-12-11T06:34:30;15.17;;;10.93;;
7983;SDS011;4037;47.980;10.172;2022-12-11T06:36:56;17.20;;;10.73;;
7983;SDS011;4037;47.980;10.172;2022-12-11T06:39:22;21.17;;;12.40;;
7983;SDS011;4037;47.980;10.172;2022-12-11T06:41:48;17.67;;;12.47;;
7983;SDS011;4037;47.980;10.172;2022-12-11T06:44:14;15.47;;;11.40;;
7983;SDS011;4037;47.980;10.172;2022-12-11T06:46:40;16.23;;;11.10;;
7983;SDS011;4037;47.980;10.172;2022-12-11T06:49:06;18.27;;;12.23;;
7983;SDS011;4037;47.980;10.172;2022-12-11T06:51:32;15.27;;;11.33;;
7983;SDS011;4037;47.980;10.172;2022-12-11T06:54:00;16.13;;;11.80;;
7983;SDS011;4037;47.980;10.172;2022-12-11T06:56:26;15.83;;;11.57;;
7983;SDS011;4037;47.980;10.172;2022-12-11T06:58:51;14.37;;;10.20;;
7983;SDS011;4037;47.980;10.172;2022-12-11T07:03:44;18.73;;;11.67;;
7983;SDS011;4037;47.980;10.172;2022-12-11T07:06:10;18.17;;;11.67;;
7983;SDS011;4037;47.980;10.172;2022-12-11T07:08:36;18.03;;;12.07;;
7983;SDS011;4037;47.980;10.172;2022-12-11T07:11:06;18.33;;;11.97;;
7983;SDS011;4037;47.980;10.172;2022-12-11T07:13:32;16.47;;;11.63;;
7983;SDS011;4037;47.980;10.172;2022-12-11T07:15:58;17.07;;;11.97;;
7983;SDS011;4037;47.980;10.172;2022-12-11T07:18:25;18.00;;;12.23;;
7983;SDS011;4037;47.980;10.172;2022-12-11T07:20:51;20.50;;;12.33;;
7983;SDS011;4037;47.980;10.172;2022-12-11T07:23:17;18.57;;;11.87;;
7983;SDS011;4037;47.980;10.172;2022-12-11T07:25:43;16.73;;;11.40;;
7983;SDS011;4037;47.980;10.172;2022-12-11T07:28:10;21.23;;;13.37;;
7983;SDS011;4037;47.980;10.172;2022-12-11T07:30:39;17.60;;;11.80;;
7983;SDS011;4037;47.980;10.172;2022-12-11T07:33:05;17.83;;;12.60;;
7983;SDS011;4037;47.980;10.172;2022-12-11T07:35:32;18.00;;;12.00;;
7983;SDS011;4037;47.980;10.172;2022-12-11T07:37:59;17.47;;;11.50;;
7983;SDS011;4037;47.980;10.172;2022-12-11T07:40:24;21.20;;;13.13;;
7983;SDS011;4037;47.980;10.172;2022-12-11T07:42:51;17.90;;;11.57;;
7983;SDS011;4037;47.980;10.172;2022-12-11T07:45:17;17.53;;;12.43;;
7983;SDS011;4037;47.980;10.172;2022-12-11T07:47:43;19.90;;;11.10;;
7983;SDS011;4037;47.980;10.172;2022-12-11T07:50:09;16.30;;;11.13;;
7983;SDS011;4037;47.980;10.172;2022-12-11T07:52:35;19.50;;;11.53;;
7983;SDS011;4037;47.980;10.172;2022-12-11T07:55:01;15.50;;;11.70;;
7983;SDS011;4037;47.980;10.172;2022-12-11T07:57:27;22.33;;;12.37;;
7983;SDS011;4037;47.980;10.172;2022-12-11T07:59:53;18.73;;;11.40;;
7983;SDS011;4037;47.980;10.172;2022-12-11T08:02:20;19.93;;;12.80;;
7983;SDS011;4037;47.980;10.172;2022-12-11T08:04:46;18.90;;;12.13;;
7983;SDS011;4037;47.980;10.172;2022-12-11T08:07:12;18.43;;;12.70;;
7983;SDS011;4037;47.980;10.172;2022-12-11T08:09:38;20.90;;;12.00;;
7983;SDS011;4037;47.980;10.172;2022-12-11T08:12:04;18.57;;;13.27;;
7983;SDS011;4037;47.980;10.172;2022-12-11T08:14:30;16.83;;;11.53;;
7983;SDS011;4037;47.980;10.172;2022-12-11T08:16:56;21.63;;;13.20;;
7983;SDS011;4037;47.980;10.172;2022-12-11T08:19:24;20.27;;;13.37;;
7983;SDS011;4037;47.980;10.172;2022-12-11T08:21:50;16.87;;;12.63;;
7983;SDS011;4037;47.980;10.172;2022-12-11T08:24:16;16.50;;;11.90;;
7983;SDS011;4037;47.980;10.172;2022-12-11T08:26:44;22.17;;;13.73;;
7983;SDS011;4037;47.980;10.172;2022-12-11T08:29:10;20.67;;;14.80;;
7983;SDS011;4037;47.980;10.172;2022-12-11T08:31:37;21.37;;;14.23;;
7983;SDS011;4037;47.980;10.172;2022-12-11T08:34:04;21.20;;;13.40;;
7983;SDS011;4037;47.980;10.172;2022-12-11T08:36:30;19.57;;;12.87;;
7983;SDS011;4037;47.980;10.172;2022-12-11T08:38:56;20.90;;;14.03;;
7983;SDS011;4037;47.980;10.172;2022-12-11T08:41:24;21.73;;;13.87;;
7983;SDS011;4037;47.980;10.172;2022-12-11T08:43:50;30.00;;;14.07;;
7983;SDS011;4037;47.980;10.172;2022-12-11T08:46:19;21.07;;;12.43;;
7983;SDS011;4037;47.980;10.172;2022-12-11T08:48:47;20.40;;;13.90;;
7983;SDS011;4037;47.980;10.172;2022-12-11T08:51:15;17.83;;;12.07;;
7983;SDS011;4037;47.980;10.172;2022-12-11T08:53:41;18.60;;;11.77;;
7983;SDS011;4037;47.980;10.172;2022-12-11T08:56:08;16.03;;;11.87;;
7983;SDS011;4037;47.980;10.172;2022-12-11T08:58:35;17.83;;;12.70;;
7983;SDS011;4037;47.980;10.172;2022-12-11T09:01:05;18.60;;;12.63;;
7983;SDS011;4037;47.980;10.172;2022-12-11T09:03:31;17.70;;;12.53;;
7983;SDS011;4037;47.980;10.172;2022-12-11T09:05:57;16.60;;;12.13;;
7983;SDS011;4037;47.980;10.172;2022-12-11T09:08:23;19.70;;;12.50;;
7983;SDS011;4037;47.980;10.172;2022-12-11T09:10:49;16.93;;;12.00;;
7983;SDS011;4037;47.980;10.172;2022-12-11T09:13:15;19.50;;;13.40;;
7983;SDS011;4037;47.980;10.172;2022-12-11T09:15:41;18.20;;;12.03;;
7983;SDS011;4037;47.980;10.172;2022-12-11T09:18:07;19.00;;;12.73;;
7983;SDS011;4037;47.980;10.172;2022-12-11T09:20:33;16.00;;;11.73;;
7983;SDS011;4037;47.980;10.172;2022-12-11T09:23:00;17.93;;;11.60;;
7983;SDS011;4037;47.980;10.172;2022-12-11T09:25:26;17.77;;;12.10;;
7983;SDS011;4037;47.980;10.172;2022-12-11T09:27:52;18.70;;;12.20;;
7983;SDS011;4037;47.980;10.172;2022-12-11T09:30:18;18.00;;;12.27;;
7983;SDS011;4037;47.980;10.172;2022-12-11T09:32:44;17.60;;;11.83;;
7983;SDS011;4037;47.980;10.172;2022-12-11T09:35:10;19.50;;;12.93;;
7983;SDS011;4037;47.980;10.172;2022-12-11T09:37:36;17.03;;;11.87;;
7983;SDS011;4037;47.980;10.172;2022-12-11T09:40:02;20.93;;;13.30;;
7983;SDS011;4037;47.980;10.172;2022-12-11T09:42:31;18.13;;;12.47;;
7983;SDS011;4037;47.980;10.172;2022-12-11T09:45:02;22.17;;;12.77;;
7983;SDS011;4037;47.980;10.172;2022-12-11T09:47:42;21.13;;;13.70;;
7983;SDS011;4037;47.980;10.172;2022-12-11T09:50:24;18.30;;;12.03;;
7983;SDS011;4037;47.980;10.172;2022-12-11T09:55:23;17.60;;;12.33;;
7983;SDS011;4037;47.980;10.172;2022-12-11T09:57:58;20.10;;;13.50;;
7983;SDS011;4037;47.980;10.172;2022-12-11T10:00:28;19.23;;;13.90;;
7983;SDS011;4037;47.980;10.172;2022-12-11T10:03:09;18.73;;;13.30;;
7983;SDS011;4037;47.980;10.172;2022-12-11T10:08:38;20.63;;;13.63;;
7983;SDS011;4037;47.980;10.172;2022-12-11T10:18:36;18.03;;;12.93;;
7983;SDS011;4037;47.980;10.172;2022-12-11T10:21:02;22.70;;;14.13;;
7983;SDS011;4037;47.980;10.172;2022-12-11T10:24:02;19.73;;;14.40;;
7983;SDS011;4037;47.980;10.172;2022-12-11T10:26:21;21.80;;;14.30;;
7983;SDS011;4037;47.980;10.172;2022-12-11T10:28:48;17.60;;;12.40;;
7983;SDS011;4037;47.980;10.172;2022-12-11T10:31:15;15.03;;;11.23;;
7983;SDS011;4037;47.980;10.172;2022-12-11T10:36:16;16.83;;;10.57;;
7983;SDS011;4037;47.980;10.172;2022-12-11T10:38:43;15.30;;;11.73;;
7983;SDS011;4037;47.980;10.172;2022-12-11T10:41:11;16.87;;;11.83;;
7983;SDS011;4037;47.980;10.172;2022-12-11T10:43:39;15.57;;;11.63;;
7983;SDS011;4037;47.980;10.172;2022-12-11T10:46:11;15.40;;;11.27;;
7983;SDS011;4037;47.980;10.172;2022-12-11T10:48:49;17.43;;;11.17;;
7983;SDS011;4037;47.980;10.172;2022-12-11T10:51:17;17.73;;;11.07;;
7983;SDS011;4037;47.980;10.172;2022-12-11T10:53:48;15.63;;;11.47;;
7983;SDS011;4037;47.980;10.172;2022-12-11T10:56:14;13.53;;;10.03;;
7983;SDS011;4037;47.980;10.172;2022-12-11T10:58:48;17.20;;;11.97;;
7983;SDS011;4037;47.980;10.172;2022-12-11T11:01:15;17.57;;;12.57;;
7983;SDS011;4037;47.980;10.172;2022-12-11T11:03:53;15.93;;;11.20;;
7983;SDS011;4037;47.980;10.172;2022-12-11T11:06:20;15.43;;;11.77;;
7983;SDS011;4037;47.980;10.172;2022-12-11T11:08:47;17.73;;;12.27;;
7983;SDS011;4037;47.980;10.172;2022-12-11T11:11:19;14.80;;;11.20;;
7983;SDS011;4037;47.980;10.172;2022-12-11T11:13:45;15.17;;;11.00;;
7983;SDS011;4037;47.980;10.172;2022-12-11T11:16:12;13.50;;;10.67;;
7983;SDS011;4037;47.980;10.172;2022-12-11T11:18:38;16.33;;;10.93;;
7983;SDS011;4037;47.980;10.172;2022-12-11T11:21:05;13.80;;;10.13;;
7983;SDS011;4037;47.980;10.172;2022-12-11T11:23:31;13.10;;;9.77;;
7983;SDS011;4037;47.980;10.172;2022-12-11T11:26:04;14.00;;;9.70;;
7983;SDS011;4037;47.980;10.172;2022-12-11T11:29:14;14.80;;;10.93;;
7983;SDS011;4037;47.980;10.172;2022-12-11T11:31:21;13.17;;;9.63;;
7983;SDS011;4037;47.980;10.172;2022-12-11T11:33:56;15.43;;;10.57;;
7983;SDS011;4037;47.980;10.172;2022-12-11T11:36:24;15.93;;;10.97;;
7983;SDS011;4037;47.980;10.172;2022-12-11T11:41:47;14.13;;;10.10;;
7983;SDS011;4037;47.980;10.172;2022-12-11T11:44:16;11.67;;;9.30;;
7983;SDS011;4037;47.980;10.172;2022-12-11T11:46:48;12.10;;;10.07;;
7983;SDS011;4037;47.980;10.172;2022-12-11T11:49:23;12.20;;;9.00;;
7983;SDS011;4037;47.980;10.172;2022-12-11T11:51:53;13.97;;;10.77;;
7983;SDS011;4037;47.980;10.172;2022-12-11T11:54:24;10.53;;;9.00;;
7983;SDS011;4037;47.980;10.172;2022-12-11T11:56:52;12.43;;;8.80;;
7983;SDS011;4037;47.980;10.172;2022-12-11T11:59:33;8.60;;;6.90;;
7983;SDS011;4037;47.980;10.172;2022-12-11T12:02:01;9.50;;;7.63;;
7983;SDS011;4037;47.980;10.172;2022-12-11T12:04:30;10.03;;;7.57;;
7983;SDS011;4037;47.980;10.172;2022-12-11T12:09:39;11.37;;;7.77;;
7983;SDS011;4037;47.980;10.172;2022-12-11T12:22:45;10.87;;;7.93;;
7983;SDS011;4037;47.980;10.172;2022-12-11T12:27:53;11.53;;;8.10;;
7983;SDS011;4037;47.980;10.172;2022-12-11T12:30:21;10.17;;;8.20;;
7983;SDS011;4037;47.980;10.172;2022-12-11T12:40:31;6.87;;;6.10;;
7983;SDS011;4037;47.980;10.172;2022-12-11T12:46:04;7.53;;;5.30;;
7983;SDS011;4037;47.980;10.172;2022-12-11T12:48:31;4.87;;;4.37;;
7983;SDS011;4037;47.980;10.172;2022-12-11T12:50:58;3.23;;;2.70;;
7983;SDS011;4037;47.980;10.172;2022-12-11T12:53:26;3.20;;;2.87;;
7983;SDS011;4037;47.980;10.172;2022-12-11T12:55:53;3.53;;;3.23;;
7983;SDS011;4037;47.980;10.172;2022-12-11T12:58:24;3.67;;;3.27;;
7983;SDS011;4037;47.980;10.172;2022-12-11T13:00:51;3.93;;;2.97;;
7983;SDS011;4037;47.980;10.172;2022-12-11T13:03:21;2.93;;;2.70;;
7983;SDS011;4037;47.980;10.172;2022-12-11T13:05:55;3.83;;;2.83;;
7983;SDS011;4037;47.980;10.172;2022-12-11T13:08:25;5.20;;;3.90;;
7983;SDS011;4037;47.980;10.172;2022-12-11T13:11:00;4.97;;;3.33;;
7983;SDS011;4037;47.980;10.172;2022-12-11T13:13:32;4.10;;;3.13;;
7983;SDS011;4037;47.980;10.172;2022-12-11T13:16:06;4.10;;;3.10;;
7983;SDS011;4037;47.980;10.172;2022-12-11T13:20:59;4.20;;;3.80;;
7983;SDS011;4037;47.980;10.172;2022-12-11T13:23:26;5.57;;;4.47;;
7983;SDS011;4037;47.980;10.172;2022-12-11T13:25:53;4.40;;;4.00;;
7983;SDS011;4037;47.980;10.172;2022-12-11T13:33:51;5.67;;;5.00;;
7983;SDS011;4037;47.980;10.172;2022-12-11T13:38:46;4.70;;;3.60;;
7983;SDS011;4037;47.980;10.172;2022-12-11T13:41:13;4.43;;;4.03;;
7983;SDS011;4037;47.980;10.172;2022-12-11T13:43:40;4.73;;;4.33;;
7983;SDS011;4037;47.980;10.172;2022-12-11T13:46:08;4.33;;;3.60;;
7983;SDS011;4037;47.980;10.172;2022-12-11T13:51:05;4.80;;;4.33;;
7983;SDS011;4037;47.980;10.172;2022-12-11T13:53:31;5.17;;;4.30;;
7983;SDS011;4037;47.980;10.172;2022-12-11T13:55:58;5.20;;;4.63;;
7983;SDS011;4037;47.980;10.172;2022-12-11T13:58:25;5.83;;;5.33;;
7983;SDS011;4037;47.980;10.172;2022-12-11T14:00:52;5.63;;;5.00;;
7983;SDS011;4037;47.980;10.172;2022-12-11T14:03:19;5.30;;;4.80;;
7983;SDS011;4037;47.980;10.172;2022-12-11T14:05:45;5.53;;;4.83;;
7983;SDS011;4037;47.980;10.172;2022-12-11T14:08:11;4.60;;;4.20;;
7983;SDS011;4037;47.980;10.172;2022-12-11T14:10:37;5.73;;;5.10;;
7983;SDS011;4037;47.980;10.172;2022-12-11T14:13:12;6.27;;;5.60;;
7983;SDS011;4037;47.980;10.172;2022-12-11T14:15:42;7.17;;;5.97;;
7983;SDS011;4037;47.980;10.172;2022-12-11T14:18:12;7.67;;;5.73;;
7983;SDS011;4037;47.980;10.172;2022-12-11T14:20:39;5.77;;;5.23;;
7983;SDS011;4037;47.980;10.172;2022-12-11T14:25:31;7.90;;;5.90;;
7983;SDS011;4037;47.980;10.172;2022-12-11T14:27:57;10.57;;;6.90;;
7983;SDS011;4037;47.980;10.172;2022-12-11T14:30:26;7.33;;;5.63;;
7983;SDS011;4037;47.980;10.172;2022-12-11T14:32:56;7.80;;;6.10;;
7983;SDS011;4037;47.980;10.172;2022-12-11T14:35:27;9.20;;;6.50;;
7983;SDS011;4037;47.980;10.172;2022-12-11T14:37:54;6.60;;;5.63;;
7983;SDS011;4037;47.980;10.172;2022-12-11T14:40:23;6.90;;;5.63;;
7983;SDS011;4037;47.980;10.172;2022-12-11T14:42:51;6.50;;;5.37;;
7983;SDS011;4037;47.980;10.172;2022-12-11T14:47:45;8.40;;;6.57;;
7983;SDS011;4037;47.980;10.172;2022-12-11T14:52:39;9.90;;;6.87;;
7983;SDS011;4037;47.980;10.172;2022-12-11T14:57:39;9.17;;;6.67;;
7983;SDS011;4037;47.980;10.172;2022-12-11T15:00:07;9.17;;;7.03;;
7983;SDS011;4037;47.980;10.172;2022-12-11T15:02:34;9.70;;;7.57;;
7983;SDS011;4037;47.980;10.172;2022-12-11T15:05:11;10.47;;;7.80;;
7983;SDS011;4037;47.980;10.172;2022-12-11T15:07:38;9.90;;;6.97;;
7983;SDS011;4037;47.980;10.172;2022-12-11T15:10:04;10.80;;;6.77;;
7983;SDS011;4037;47.980;10.172;2022-12-11T15:12:31;11.30;;;7.63;;
7983;SDS011;4037;47.980;10.172;2022-12-11T15:14:57;10.17;;;7.83;;
7983;SDS011;4037;47.980;10.172;2022-12-11T15:17:27;10.73;;;6.87;;
7983;SDS011;4037;47.980;10.172;2022-12-11T15:19:55;10.50;;;7.67;;
7983;SDS011;4037;47.980;10.172;2022-12-11T15:22:21;9.80;;;7.47;;
7983;SDS011;4037;47.980;10.172;2022-12-11T15:24:49;11.67;;;7.43;;
7983;SDS011;4037;47.980;10.172;2022-12-11T15:30:01;11.63;;;7.80;;
7983;SDS011;4037;47.980;10.172;2022-12-11T15:32:27;9.70;;;7.50;;
7983;SDS011;4037;47.980;10.172;2022-12-11T15:34:55;10.47;;;7.47;;
7983;SDS011;4037;47.980;10.172;2022-12-11T15:39:50;13.83;;;9.57;;
7983;SDS011;4037;47.980;10.172;2022-12-11T15:42:20;17.47;;;11.60;;
7983;SDS011;4037;47.980;10.172;2022-12-11T15:44:47;16.33;;;10.97;;
7983;SDS011;4037;47.980;10.172;2022-12-11T15:47:13;14.13;;;9.40;;
7983;SDS011;4037;47.980;10.172;2022-12-11T15:49:40;19.03;;;11.83;;
7983;SDS011;4037;47.980;10.172;2022-12-11T15:52:06;14.97;;;9.53;;
7983;SDS011;4037;47.980;10.172;2022-12-11T15:54:32;11.80;;;8.30;;
7983;SDS011;4037;47.980;10.172;2022-12-11T15:56:59;10.50;;;7.83;;
7983;SDS011;4037;47.980;10.172;2022-12-11T15:59:26;11.47;;;7.93;;
7983;SDS011;4037;47.980;10.172;2022-12-11T16:01:52;13.33;;;8.77;;
7983;SDS011;4037;47.980;10.172;2022-12-11T16:04:18;13.07;;;8.80;;
7983;SDS011;4037;47.980;10.172;2022-12-11T16:06:44;21.73;;;13.00;;
7983;SDS011;4037;47.980;10.172;2022-12-11T16:09:11;27.57;;;15.67;;
7983;SDS011;4037;47.980;10.172;2022-12-11T16:11:37;12.90;;;8.40;;
7983;SDS011;4037;47.980;10.172;2022-12-11T16:14:03;14.57;;;9.17;;
7983;SDS011;4037;47.980;10.172;2022-12-11T16:16:29;16.30;;;8.63;;
7983;SDS011;4037;47.980;10.172;2022-12-11T16:18:55;13.93;;;8.90;;
7983;SDS011;4037;47.980;10.172;2022-12-11T16:21:21;13.23;;;9.13;;
7983;SDS011;4037;47.980;10.172;2022-12-11T16:23:47;17.77;;;10.70;;
7983;SDS011;4037;47.980;10.172;2022-12-11T16:26:13;14.37;;;9.23;;